sensor_id;sensor_type;location;lat;lon;timestamp;P1;durP1;ratioP1;P2;durP2;ratioP2
28756;SDS011;44294;48.282;14.282;2022-10-30T00:01:23;42.67;;;22.30;;
28756;SDS011;44294;48.282;14.282;2022-10-30T00:04:10;44.43;;;22.70;;
28756;SDS011;44294;48.282;14.282;2022-10-30T00:06:58;39.53;;;21.63;;
28756;SDS011;44294;48.282;14.282;2022-10-30T00:09:45;45.53;;;22.90;;
28756;SDS011;44294;48.282;14.282;2022-10-30T00:12:32;43.27;;;21.80;;
28756;SDS011;44294;48.282;14.282;2022-10-30T00:15:20;43.33;;;21.63;;
28756;SDS011;44294;48.282;14.282;2022-10-30T00:18:07;36.60;;;19.13;;
28756;SDS011;44294;48.282;14.282;2022-10-30T00:20:54;35.97;;;18.97;;
28756;SDS011;44294;48.282;14.282;2022-10-30T00:23:45;38.37;;;19.73;;
28756;SDS011;44294;48.282;14.282;2022-10-30T00:26:33;38.93;;;18.40;;
28756;SDS011;44294;48.282;14.282;2022-10-30T00:29:20;33.70;;;18.43;;
28756;SDS011;44294;48.282;14.282;2022-10-30T00:32:10;30.80;;;17.73;;
28756;SDS011;44294;48.282;14.282;2022-10-30T00:34:57;31.67;;;17.57;;
28756;SDS011;44294;48.282;14.282;2022-10-30T00:37:44;32.73;;;17.43;;
28756;SDS011;44294;48.282;14.282;2022-10-30T00:40:31;38.10;;;17.53;;
28756;SDS011;44294;48.282;14.282;2022-10-30T00:43:26;30.23;;;17.00;;
28756;SDS011;44294;48.282;14.282;2022-10-30T00:49:05;34.83;;;17.37;;
28756;SDS011;44294;48.282;14.282;2022-10-30T00:51:52;33.47;;;17.80;;
28756;SDS011;44294;48.282;14.282;2022-10-30T00:54:41;36.83;;;20.33;;
28756;SDS011;44294;48.282;14.282;2022-10-30T00:57:28;36.53;;;19.97;;
28756;SDS011;44294;48.282;14.282;2022-10-30T01:00:16;36.87;;;20.40;;
28756;SDS011;44294;48.282;14.282;2022-10-30T01:03:04;36.47;;;19.80;;
28756;SDS011;44294;48.282;14.282;2022-10-30T01:05:53;36.33;;;19.73;;
28756;SDS011;44294;48.282;14.282;2022-10-30T01:08:40;56.10;;;21.03;;
28756;SDS011;44294;48.282;14.282;2022-10-30T01:11:28;77.13;;;21.77;;
28756;SDS011;44294;48.282;14.282;2022-10-30T01:14:16;38.47;;;20.30;;
28756;SDS011;44294;48.282;14.282;2022-10-30T01:17:09;48.50;;;20.50;;
28756;SDS011;44294;48.282;14.282;2022-10-30T01:25:58;37.03;;;19.63;;
28756;SDS011;44294;48.282;14.282;2022-10-30T01:34:50;37.60;;;20.57;;
28756;SDS011;44294;48.282;14.282;2022-10-30T01:37:53;35.33;;;20.67;;
28756;SDS011;44294;48.282;14.282;2022-10-30T01:40:38;39.97;;;21.83;;
28756;SDS011;44294;48.282;14.282;2022-10-30T01:43:25;43.53;;;21.40;;
28756;SDS011;44294;48.282;14.282;2022-10-30T01:49:29;49.93;;;21.17;;
28756;SDS011;44294;48.282;14.282;2022-10-30T01:52:21;45.97;;;21.77;;
28756;SDS011;44294;48.282;14.282;2022-10-30T02:01:07;37.83;;;18.73;;
28756;SDS011;44294;48.282;14.282;2022-10-30T02:03:54;33.03;;;17.90;;
28756;SDS011;44294;48.282;14.282;2022-10-30T02:06:42;34.30;;;17.93;;
28756;SDS011;44294;48.282;14.282;2022-10-30T02:09:29;27.90;;;17.17;;
28756;SDS011;44294;48.282;14.282;2022-10-30T02:12:17;29.90;;;17.70;;
28756;SDS011;44294;48.282;14.282;2022-10-30T02:15:05;31.50;;;17.33;;
28756;SDS011;44294;48.282;14.282;2022-10-30T02:17:53;27.43;;;17.27;;
28756;SDS011;44294;48.282;14.282;2022-10-30T02:20:42;30.10;;;17.70;;
28756;SDS011;44294;48.282;14.282;2022-10-30T02:23:29;28.83;;;16.93;;
28756;SDS011;44294;48.282;14.282;2022-10-30T02:26:18;30.30;;;17.77;;
28756;SDS011;44294;48.282;14.282;2022-10-30T02:29:05;29.23;;;16.97;;
28756;SDS011;44294;48.282;14.282;2022-10-30T02:31:52;33.67;;;17.73;;
28756;SDS011;44294;48.282;14.282;2022-10-30T02:34:40;36.07;;;18.17;;
28756;SDS011;44294;48.282;14.282;2022-10-30T02:37:28;30.67;;;17.87;;
28756;SDS011;44294;48.282;14.282;2022-10-30T02:40:17;33.03;;;17.67;;
28756;SDS011;44294;48.282;14.282;2022-10-30T02:43:04;32.43;;;18.07;;
28756;SDS011;44294;48.282;14.282;2022-10-30T02:45:52;34.83;;;18.50;;
28756;SDS011;44294;48.282;14.282;2022-10-30T02:48:40;32.73;;;18.10;;
28756;SDS011;44294;48.282;14.282;2022-10-30T02:51:29;31.73;;;17.00;;
28756;SDS011;44294;48.282;14.282;2022-10-30T02:54:17;28.53;;;15.93;;
28756;SDS011;44294;48.282;14.282;2022-10-30T02:57:04;29.73;;;14.93;;
28756;SDS011;44294;48.282;14.282;2022-10-30T02:59:51;33.13;;;15.90;;
28756;SDS011;44294;48.282;14.282;2022-10-30T03:02:39;27.67;;;15.40;;
28756;SDS011;44294;48.282;14.282;2022-10-30T03:05:26;28.17;;;15.60;;
28756;SDS011;44294;48.282;14.282;2022-10-30T03:08:13;68.97;;;18.70;;
28756;SDS011;44294;48.282;14.282;2022-10-30T03:11:03;96.23;;;18.07;;
28756;SDS011;44294;48.282;14.282;2022-10-30T03:13:49;61.67;;;15.83;;
28756;SDS011;44294;48.282;14.282;2022-10-30T03:16:37;115.73;;;15.57;;
28756;SDS011;44294;48.282;14.282;2022-10-30T03:19:24;33.33;;;14.03;;
28756;SDS011;44294;48.282;14.282;2022-10-30T03:22:12;156.90;;;17.70;;
28756;SDS011;44294;48.282;14.282;2022-10-30T03:24:59;18.83;;;12.53;;
28756;SDS011;44294;48.282;14.282;2022-10-30T03:27:46;19.87;;;12.03;;
28756;SDS011;44294;48.282;14.282;2022-10-30T03:30:33;19.70;;;12.63;;
28756;SDS011;44294;48.282;14.282;2022-10-30T03:33:22;16.13;;;11.23;;
28756;SDS011;44294;48.282;14.282;2022-10-30T03:36:10;16.33;;;11.60;;
28756;SDS011;44294;48.282;14.282;2022-10-30T03:38:58;23.47;;;11.43;;
28756;SDS011;44294;48.282;14.282;2022-10-30T03:41:45;16.63;;;11.30;;
28756;SDS011;44294;48.282;14.282;2022-10-30T03:44:32;31.80;;;12.53;;
28756;SDS011;44294;48.282;14.282;2022-10-30T03:47:20;18.40;;;11.90;;
28756;SDS011;44294;48.282;14.282;2022-10-30T03:50:07;19.80;;;12.20;;
28756;SDS011;44294;48.282;14.282;2022-10-30T03:52:55;44.53;;;14.23;;
28756;SDS011;44294;48.282;14.282;2022-10-30T03:55:42;72.10;;;15.70;;
28756;SDS011;44294;48.282;14.282;2022-10-30T03:58:29;42.10;;;13.07;;
28756;SDS011;44294;48.282;14.282;2022-10-30T04:01:17;20.43;;;12.23;;
28756;SDS011;44294;48.282;14.282;2022-10-30T04:04:04;20.90;;;12.50;;
28756;SDS011;44294;48.282;14.282;2022-10-30T04:06:51;30.83;;;12.17;;
28756;SDS011;44294;48.282;14.282;2022-10-30T04:09:39;19.97;;;12.50;;
28756;SDS011;44294;48.282;14.282;2022-10-30T04:12:26;21.83;;;12.83;;
28756;SDS011;44294;48.282;14.282;2022-10-30T04:15:13;19.20;;;12.60;;
28756;SDS011;44294;48.282;14.282;2022-10-30T04:18:01;40.07;;;14.33;;
28756;SDS011;44294;48.282;14.282;2022-10-30T04:20:48;22.17;;;12.83;;
28756;SDS011;44294;48.282;14.282;2022-10-30T04:23:36;18.60;;;12.33;;
28756;SDS011;44294;48.282;14.282;2022-10-30T04:26:23;19.07;;;12.60;;
28756;SDS011;44294;48.282;14.282;2022-10-30T04:29:11;19.47;;;12.40;;
28756;SDS011;44294;48.282;14.282;2022-10-30T04:31:58;19.37;;;11.50;;
28756;SDS011;44294;48.282;14.282;2022-10-30T04:34:45;20.73;;;12.70;;
28756;SDS011;44294;48.282;14.282;2022-10-30T04:37:33;47.80;;;14.80;;
28756;SDS011;44294;48.282;14.282;2022-10-30T04:40:20;35.30;;;15.80;;
28756;SDS011;44294;48.282;14.282;2022-10-30T04:43:08;45.27;;;16.97;;
28756;SDS011;44294;48.282;14.282;2022-10-30T04:45:56;38.37;;;16.63;;
28756;SDS011;44294;48.282;14.282;2022-10-30T04:48:43;37.30;;;17.43;;
28756;SDS011;44294;48.282;14.282;2022-10-30T04:51:31;55.07;;;20.47;;
28756;SDS011;44294;48.282;14.282;2022-10-30T04:54:18;44.07;;;19.33;;
28756;SDS011;44294;48.282;14.282;2022-10-30T04:57:07;43.23;;;18.30;;
28756;SDS011;44294;48.282;14.282;2022-10-30T04:59:54;64.43;;;19.57;;
28756;SDS011;44294;48.282;14.282;2022-10-30T05:02:42;58.30;;;21.90;;
28756;SDS011;44294;48.282;14.282;2022-10-30T05:05:29;60.67;;;20.93;;
28756;SDS011;44294;48.282;14.282;2022-10-30T05:08:17;117.03;;;28.37;;
28756;SDS011;44294;48.282;14.282;2022-10-30T05:11:04;70.90;;;26.67;;
28756;SDS011;44294;48.282;14.282;2022-10-30T05:13:51;77.00;;;27.83;;
28756;SDS011;44294;48.282;14.282;2022-10-30T05:16:39;79.43;;;31.43;;
28756;SDS011;44294;48.282;14.282;2022-10-30T05:19:26;83.03;;;33.07;;
28756;SDS011;44294;48.282;14.282;2022-10-30T05:22:13;115.83;;;34.50;;
28756;SDS011;44294;48.282;14.282;2022-10-30T05:25:01;82.80;;;33.07;;
28756;SDS011;44294;48.282;14.282;2022-10-30T05:27:48;104.17;;;33.50;;
28756;SDS011;44294;48.282;14.282;2022-10-30T05:30:36;71.43;;;30.90;;
28756;SDS011;44294;48.282;14.282;2022-10-30T05:33:23;81.30;;;31.50;;
28756;SDS011;44294;48.282;14.282;2022-10-30T05:36:11;109.53;;;29.70;;
28756;SDS011;44294;48.282;14.282;2022-10-30T05:38:58;73.43;;;30.37;;
28756;SDS011;44294;48.282;14.282;2022-10-30T05:41:45;90.93;;;31.70;;
28756;SDS011;44294;48.282;14.282;2022-10-30T05:44:33;72.00;;;30.80;;
28756;SDS011;44294;48.282;14.282;2022-10-30T05:47:20;72.13;;;30.13;;
28756;SDS011;44294;48.282;14.282;2022-10-30T05:50:07;74.53;;;30.73;;
28756;SDS011;44294;48.282;14.282;2022-10-30T05:52:56;96.10;;;32.03;;
28756;SDS011;44294;48.282;14.282;2022-10-30T05:55:43;209.70;;;34.43;;
28756;SDS011;44294;48.282;14.282;2022-10-30T05:58:30;69.17;;;32.23;;
28756;SDS011;44294;48.282;14.282;2022-10-30T06:01:18;64.47;;;30.87;;
28756;SDS011;44294;48.282;14.282;2022-10-30T06:04:05;108.63;;;30.50;;
28756;SDS011;44294;48.282;14.282;2022-10-30T06:06:52;62.50;;;28.93;;
28756;SDS011;44294;48.282;14.282;2022-10-30T06:09:40;77.03;;;30.07;;
28756;SDS011;44294;48.282;14.282;2022-10-30T06:12:27;53.20;;;26.13;;
28756;SDS011;44294;48.282;14.282;2022-10-30T06:15:14;95.93;;;28.13;;
28756;SDS011;44294;48.282;14.282;2022-10-30T06:18:02;56.87;;;25.30;;
28756;SDS011;44294;48.282;14.282;2022-10-30T06:20:49;61.07;;;25.00;;
28756;SDS011;44294;48.282;14.282;2022-10-30T06:23:36;49.70;;;25.03;;
28756;SDS011;44294;48.282;14.282;2022-10-30T06:26:24;43.53;;;23.70;;
28756;SDS011;44294;48.282;14.282;2022-10-30T06:29:11;50.67;;;25.70;;
28756;SDS011;44294;48.282;14.282;2022-10-30T06:31:59;45.77;;;24.47;;
28756;SDS011;44294;48.282;14.282;2022-10-30T06:34:46;66.43;;;26.03;;
28756;SDS011;44294;48.282;14.282;2022-10-30T06:37:33;48.07;;;25.17;;
28756;SDS011;44294;48.282;14.282;2022-10-30T06:40:21;42.37;;;23.20;;
28756;SDS011;44294;48.282;14.282;2022-10-30T06:43:09;45.67;;;23.33;;
28756;SDS011;44294;48.282;14.282;2022-10-30T06:45:56;49.20;;;24.53;;
28756;SDS011;44294;48.282;14.282;2022-10-30T06:48:44;47.33;;;25.37;;
28756;SDS011;44294;48.282;14.282;2022-10-30T06:51:31;50.97;;;27.30;;
28756;SDS011;44294;48.282;14.282;2022-10-30T06:54:18;48.03;;;25.37;;
28756;SDS011;44294;48.282;14.282;2022-10-30T06:57:06;65.90;;;28.70;;
28756;SDS011;44294;48.282;14.282;2022-10-30T06:59:53;65.73;;;30.43;;
28756;SDS011;44294;48.282;14.282;2022-10-30T07:02:40;81.07;;;33.13;;
28756;SDS011;44294;48.282;14.282;2022-10-30T07:05:28;85.20;;;34.30;;
28756;SDS011;44294;48.282;14.282;2022-10-30T07:08:15;90.77;;;35.30;;
28756;SDS011;44294;48.282;14.282;2022-10-30T07:11:02;91.80;;;35.50;;
28756;SDS011;44294;48.282;14.282;2022-10-30T07:13:50;90.57;;;34.23;;
28756;SDS011;44294;48.282;14.282;2022-10-30T07:16:37;80.60;;;33.33;;
28756;SDS011;44294;48.282;14.282;2022-10-30T07:19:24;78.50;;;31.87;;
28756;SDS011;44294;48.282;14.282;2022-10-30T07:22:12;82.27;;;32.93;;
28756;SDS011;44294;48.282;14.282;2022-10-30T07:24:59;79.83;;;33.20;;
28756;SDS011;44294;48.282;14.282;2022-10-30T07:27:47;84.73;;;32.60;;
28756;SDS011;44294;48.282;14.282;2022-10-30T07:30:35;76.37;;;31.57;;
28756;SDS011;44294;48.282;14.282;2022-10-30T07:33:22;96.03;;;33.80;;
28756;SDS011;44294;48.282;14.282;2022-10-30T07:36:10;99.87;;;36.00;;
28756;SDS011;44294;48.282;14.282;2022-10-30T07:38:57;93.37;;;36.20;;
28756;SDS011;44294;48.282;14.282;2022-10-30T07:41:47;107.93;;;38.37;;
28756;SDS011;44294;48.282;14.282;2022-10-30T07:44:34;106.67;;;38.67;;
28756;SDS011;44294;48.282;14.282;2022-10-30T07:47:21;107.10;;;40.03;;
28756;SDS011;44294;48.282;14.282;2022-10-30T07:50:09;97.27;;;37.47;;
28756;SDS011;44294;48.282;14.282;2022-10-30T07:52:57;194.90;;;43.80;;
28756;SDS011;44294;48.282;14.282;2022-10-30T07:55:44;180.83;;;45.20;;
28756;SDS011;44294;48.282;14.282;2022-10-30T07:58:32;105.77;;;43.37;;
28756;SDS011;44294;48.282;14.282;2022-10-30T08:01:19;115.30;;;44.43;;
28756;SDS011;44294;48.282;14.282;2022-10-30T08:04:06;110.73;;;43.80;;
28756;SDS011;44294;48.282;14.282;2022-10-30T08:06:55;179.53;;;47.87;;
28756;SDS011;44294;48.282;14.282;2022-10-30T08:09:42;149.30;;;44.77;;
28756;SDS011;44294;48.282;14.282;2022-10-30T08:12:31;116.20;;;43.53;;
28756;SDS011;44294;48.282;14.282;2022-10-30T08:15:19;114.70;;;44.03;;
28756;SDS011;44294;48.282;14.282;2022-10-30T08:18:06;105.33;;;43.47;;
28756;SDS011;44294;48.282;14.282;2022-10-30T08:20:53;174.77;;;47.07;;
28756;SDS011;44294;48.282;14.282;2022-10-30T08:23:40;119.30;;;45.17;;
28756;SDS011;44294;48.282;14.282;2022-10-30T08:26:28;115.23;;;44.63;;
28756;SDS011;44294;48.282;14.282;2022-10-30T08:29:15;116.93;;;44.23;;
28756;SDS011;44294;48.282;14.282;2022-10-30T08:32:03;126.83;;;43.10;;
28756;SDS011;44294;48.282;14.282;2022-10-30T08:34:50;132.77;;;45.07;;
28756;SDS011;44294;48.282;14.282;2022-10-30T08:37:37;123.37;;;42.83;;
28756;SDS011;44294;48.282;14.282;2022-10-30T08:40:25;165.67;;;43.57;;
28756;SDS011;44294;48.282;14.282;2022-10-30T08:43:12;134.60;;;42.57;;
28756;SDS011;44294;48.282;14.282;2022-10-30T08:46:00;120.63;;;41.50;;
28756;SDS011;44294;48.282;14.282;2022-10-30T08:48:48;125.70;;;43.60;;
28756;SDS011;44294;48.282;14.282;2022-10-30T08:51:35;114.77;;;41.70;;
28756;SDS011;44294;48.282;14.282;2022-10-30T08:54:23;117.60;;;42.77;;
28756;SDS011;44294;48.282;14.282;2022-10-30T08:57:10;102.70;;;42.37;;
28756;SDS011;44294;48.282;14.282;2022-10-30T08:59:57;106.27;;;41.40;;
28756;SDS011;44294;48.282;14.282;2022-10-30T09:02:44;108.83;;;43.43;;
28756;SDS011;44294;48.282;14.282;2022-10-30T09:05:32;113.57;;;43.43;;
28756;SDS011;44294;48.282;14.282;2022-10-30T09:08:19;113.83;;;44.13;;
28756;SDS011;44294;48.282;14.282;2022-10-30T09:11:06;106.20;;;41.80;;
28756;SDS011;44294;48.282;14.282;2022-10-30T09:13:54;111.87;;;43.67;;
28756;SDS011;44294;48.282;14.282;2022-10-30T09:16:41;116.67;;;45.23;;
28756;SDS011;44294;48.282;14.282;2022-10-30T09:19:28;127.73;;;45.70;;
28756;SDS011;44294;48.282;14.282;2022-10-30T09:22:16;122.33;;;45.03;;
28756;SDS011;44294;48.282;14.282;2022-10-30T09:25:03;113.23;;;46.60;;
28756;SDS011;44294;48.282;14.282;2022-10-30T09:27:51;108.93;;;43.20;;
28756;SDS011;44294;48.282;14.282;2022-10-30T09:30:38;115.47;;;45.37;;
28756;SDS011;44294;48.282;14.282;2022-10-30T09:33:25;112.67;;;44.43;;
28756;SDS011;44294;48.282;14.282;2022-10-30T09:36:13;106.20;;;43.47;;
28756;SDS011;44294;48.282;14.282;2022-10-30T09:39:00;115.07;;;45.57;;
28756;SDS011;44294;48.282;14.282;2022-10-30T09:50:30;106.47;;;44.53;;
28756;SDS011;44294;48.282;14.282;2022-10-30T09:53:23;111.50;;;45.87;;
28756;SDS011;44294;48.282;14.282;2022-10-30T09:56:11;114.20;;;45.40;;
28756;SDS011;44294;48.282;14.282;2022-10-30T10:01:51;102.93;;;43.90;;
28756;SDS011;44294;48.282;14.282;2022-10-30T10:04:41;94.97;;;41.53;;
28756;SDS011;44294;48.282;14.282;2022-10-30T10:07:35;97.40;;;43.13;;
28756;SDS011;44294;48.282;14.282;2022-10-30T10:10:20;90.83;;;38.77;;
28756;SDS011;44294;48.282;14.282;2022-10-30T10:13:10;88.30;;;39.90;;
28756;SDS011;44294;48.282;14.282;2022-10-30T10:16:02;91.37;;;39.73;;
28756;SDS011;44294;48.282;14.282;2022-10-30T10:21:35;86.50;;;38.37;;
28756;SDS011;44294;48.282;14.282;2022-10-30T10:24:34;78.67;;;36.77;;
28756;SDS011;44294;48.282;14.282;2022-10-30T10:30:25;68.27;;;33.87;;
28756;SDS011;44294;48.282;14.282;2022-10-30T10:33:24;67.20;;;33.17;;
28756;SDS011;44294;48.282;14.282;2022-10-30T10:39:03;73.20;;;34.40;;
28756;SDS011;44294;48.282;14.282;2022-10-30T10:41:56;68.83;;;33.57;;
28756;SDS011;44294;48.282;14.282;2022-10-30T10:51:12;71.63;;;34.13;;
28756;SDS011;44294;48.282;14.282;2022-10-30T10:54:10;70.90;;;31.80;;
28756;SDS011;44294;48.282;14.282;2022-10-30T10:56:54;68.80;;;32.60;;
28756;SDS011;44294;48.282;14.282;2022-10-30T10:59:43;68.60;;;33.07;;
28756;SDS011;44294;48.282;14.282;2022-10-30T11:02:37;76.97;;;34.60;;
28756;SDS011;44294;48.282;14.282;2022-10-30T11:05:25;67.50;;;32.77;;
28756;SDS011;44294;48.282;14.282;2022-10-30T11:08:20;72.40;;;34.97;;
28756;SDS011;44294;48.282;14.282;2022-10-30T11:11:07;69.87;;;34.67;;
28756;SDS011;44294;48.282;14.282;2022-10-30T11:13:54;70.77;;;34.33;;
28756;SDS011;44294;48.282;14.282;2022-10-30T11:19:47;61.67;;;31.87;;
28756;SDS011;44294;48.282;14.282;2022-10-30T11:22:37;61.43;;;30.50;;
28756;SDS011;44294;48.282;14.282;2022-10-30T11:25:26;58.80;;;30.27;;
28756;SDS011;44294;48.282;14.282;2022-10-30T11:28:14;58.00;;;29.63;;
28756;SDS011;44294;48.282;14.282;2022-10-30T11:31:16;57.50;;;28.03;;
28756;SDS011;44294;48.282;14.282;2022-10-30T11:37:07;48.33;;;25.17;;
28756;SDS011;44294;48.282;14.282;2022-10-30T11:40:11;45.90;;;23.67;;
28756;SDS011;44294;48.282;14.282;2022-10-30T11:42:57;44.37;;;23.60;;
28756;SDS011;44294;48.282;14.282;2022-10-30T11:45:43;43.13;;;23.03;;
28756;SDS011;44294;48.282;14.282;2022-10-30T11:48:31;43.73;;;22.27;;
28756;SDS011;44294;48.282;14.282;2022-10-30T11:51:36;37.93;;;21.80;;
28756;SDS011;44294;48.282;14.282;2022-10-30T11:54:23;43.07;;;21.30;;
28756;SDS011;44294;48.282;14.282;2022-10-30T11:57:19;39.17;;;21.10;;
28756;SDS011;44294;48.282;14.282;2022-10-30T12:00:04;41.40;;;21.43;;
28756;SDS011;44294;48.282;14.282;2022-10-30T12:02:53;39.47;;;20.40;;
28756;SDS011;44294;48.282;14.282;2022-10-30T12:05:41;40.80;;;20.93;;
28756;SDS011;44294;48.282;14.282;2022-10-30T12:08:29;42.27;;;21.10;;
28756;SDS011;44294;48.282;14.282;2022-10-30T12:11:16;46.00;;;24.07;;
28756;SDS011;44294;48.282;14.282;2022-10-30T12:14:04;47.47;;;24.33;;
28756;SDS011;44294;48.282;14.282;2022-10-30T12:16:53;47.50;;;24.37;;
28756;SDS011;44294;48.282;14.282;2022-10-30T12:19:44;47.60;;;24.27;;
28756;SDS011;44294;48.282;14.282;2022-10-30T12:22:33;50.20;;;26.10;;
28756;SDS011;44294;48.282;14.282;2022-10-30T12:25:28;46.87;;;24.77;;
28756;SDS011;44294;48.282;14.282;2022-10-30T12:28:19;54.13;;;25.63;;
28756;SDS011;44294;48.282;14.282;2022-10-30T12:34:02;41.33;;;22.23;;
28756;SDS011;44294;48.282;14.282;2022-10-30T12:39:59;43.97;;;23.43;;
28756;SDS011;44294;48.282;14.282;2022-10-30T12:45:53;51.10;;;25.80;;
28756;SDS011;44294;48.282;14.282;2022-10-30T12:48:43;49.17;;;25.17;;
28756;SDS011;44294;48.282;14.282;2022-10-30T12:51:34;51.97;;;25.73;;
28756;SDS011;44294;48.282;14.282;2022-10-30T12:54:40;50.83;;;24.63;;
28756;SDS011;44294;48.282;14.282;2022-10-30T12:57:27;46.37;;;24.43;;
28756;SDS011;44294;48.282;14.282;2022-10-30T13:00:16;46.57;;;23.43;;
28756;SDS011;44294;48.282;14.282;2022-10-30T13:06:15;26.57;;;15.60;;
28756;SDS011;44294;48.282;14.282;2022-10-30T13:14:44;24.63;;;12.40;;
28756;SDS011;44294;48.282;14.282;2022-10-30T13:17:31;24.10;;;12.37;;
28756;SDS011;44294;48.282;14.282;2022-10-30T13:20:18;23.90;;;12.03;;
28756;SDS011;44294;48.282;14.282;2022-10-30T13:23:11;23.23;;;11.57;;
28756;SDS011;44294;48.282;14.282;2022-10-30T13:28:53;21.67;;;10.80;;
28756;SDS011;44294;48.282;14.282;2022-10-30T13:31:41;19.43;;;9.90;;
28756;SDS011;44294;48.282;14.282;2022-10-30T13:34:29;19.97;;;10.00;;
28756;SDS011;44294;48.282;14.282;2022-10-30T13:40:12;17.40;;;9.03;;
28756;SDS011;44294;48.282;14.282;2022-10-30T13:54:43;16.80;;;9.27;;
28756;SDS011;44294;48.282;14.282;2022-10-30T13:57:33;17.83;;;9.57;;
28756;SDS011;44294;48.282;14.282;2022-10-30T14:00:20;17.57;;;9.23;;
28756;SDS011;44294;48.282;14.282;2022-10-30T14:21:27;11.43;;;7.03;;
28756;SDS011;44294;48.282;14.282;2022-10-30T14:23:58;16.30;;;7.60;;
28756;SDS011;44294;48.282;14.282;2022-10-30T14:26:39;15.23;;;7.30;;
28756;SDS011;44294;48.282;14.282;2022-10-30T14:29:35;11.90;;;6.83;;
28756;SDS011;44294;48.282;14.282;2022-10-30T14:35:26;14.97;;;7.37;;
28756;SDS011;44294;48.282;14.282;2022-10-30T14:41:03;11.57;;;7.00;;
28756;SDS011;44294;48.282;14.282;2022-10-30T14:44:02;12.93;;;7.03;;
28756;SDS011;44294;48.282;14.282;2022-10-30T14:49:48;15.90;;;8.20;;
28756;SDS011;44294;48.282;14.282;2022-10-30T14:58:39;19.47;;;7.43;;
28756;SDS011;44294;48.282;14.282;2022-10-30T15:01:29;11.13;;;7.40;;
28756;SDS011;44294;48.282;14.282;2022-10-30T15:10:23;12.67;;;7.30;;
28756;SDS011;44294;48.282;14.282;2022-10-30T15:13:14;14.00;;;7.37;;
28756;SDS011;44294;48.282;14.282;2022-10-30T15:16:02;11.10;;;7.00;;
28756;SDS011;44294;48.282;14.282;2022-10-30T15:18:58;10.70;;;7.30;;
28756;SDS011;44294;48.282;14.282;2022-10-30T15:21:46;12.27;;;7.00;;
28756;SDS011;44294;48.282;14.282;2022-10-30T15:24:34;12.83;;;7.57;;
28756;SDS011;44294;48.282;14.282;2022-10-30T15:27:21;10.70;;;7.10;;
28756;SDS011;44294;48.282;14.282;2022-10-30T15:30:13;14.03;;;7.60;;
28756;SDS011;44294;48.282;14.282;2022-10-30T15:32:59;13.57;;;7.87;;
28756;SDS011;44294;48.282;14.282;2022-10-30T15:35:46;16.63;;;8.00;;
28756;SDS011;44294;48.282;14.282;2022-10-30T15:38:34;12.43;;;7.90;;
28756;SDS011;44294;48.282;14.282;2022-10-30T15:41:21;13.23;;;7.80;;
28756;SDS011;44294;48.282;14.282;2022-10-30T15:44:09;13.27;;;7.70;;
28756;SDS011;44294;48.282;14.282;2022-10-30T15:46:57;13.77;;;8.03;;
28756;SDS011;44294;48.282;14.282;2022-10-30T15:49:51;16.77;;;8.60;;
28756;SDS011;44294;48.282;14.282;2022-10-30T15:52:42;12.57;;;7.90;;
28756;SDS011;44294;48.282;14.282;2022-10-30T15:55:30;12.20;;;7.50;;
28756;SDS011;44294;48.282;14.282;2022-10-30T15:58:19;15.23;;;8.33;;
28756;SDS011;44294;48.282;14.282;2022-10-30T16:01:21;13.03;;;7.70;;
28756;SDS011;44294;48.282;14.282;2022-10-30T16:03:55;13.20;;;7.67;;
28756;SDS011;44294;48.282;14.282;2022-10-30T16:06:50;15.00;;;7.80;;
28756;SDS011;44294;48.282;14.282;2022-10-30T16:09:35;12.27;;;7.43;;
28756;SDS011;44294;48.282;14.282;2022-10-30T16:12:23;13.03;;;7.83;;
28756;SDS011;44294;48.282;14.282;2022-10-30T16:15:16;14.30;;;7.40;;
28756;SDS011;44294;48.282;14.282;2022-10-30T16:21:02;13.30;;;7.30;;
28756;SDS011;44294;48.282;14.282;2022-10-30T16:23:51;13.87;;;7.70;;
28756;SDS011;44294;48.282;14.282;2022-10-30T16:26:39;14.93;;;6.90;;
28756;SDS011;44294;48.282;14.282;2022-10-30T16:29:26;18.07;;;7.40;;
28756;SDS011;44294;48.282;14.282;2022-10-30T16:32:15;14.43;;;7.17;;
28756;SDS011;44294;48.282;14.282;2022-10-30T16:35:02;15.07;;;8.00;;
28756;SDS011;44294;48.282;14.282;2022-10-30T16:37:50;12.87;;;7.93;;
28756;SDS011;44294;48.282;14.282;2022-10-30T16:40:38;15.27;;;8.20;;
28756;SDS011;44294;48.282;14.282;2022-10-30T16:43:33;12.87;;;7.40;;
28756;SDS011;44294;48.282;14.282;2022-10-30T16:49:16;16.63;;;10.23;;
28756;SDS011;44294;48.282;14.282;2022-10-30T16:52:04;16.13;;;8.43;;
28756;SDS011;44294;48.282;14.282;2022-10-30T16:54:59;13.33;;;7.47;;
28756;SDS011;44294;48.282;14.282;2022-10-30T16:57:44;12.30;;;7.37;;
28756;SDS011;44294;48.282;14.282;2022-10-30T17:00:34;14.17;;;7.43;;
28756;SDS011;44294;48.282;14.282;2022-10-30T17:03:22;16.10;;;10.27;;
28756;SDS011;44294;48.282;14.282;2022-10-30T17:09:20;17.70;;;10.47;;
28756;SDS011;44294;48.282;14.282;2022-10-30T17:15:09;14.00;;;8.00;;
28756;SDS011;44294;48.282;14.282;2022-10-30T17:18:13;15.20;;;8.13;;
28756;SDS011;44294;48.282;14.282;2022-10-30T17:21:12;15.83;;;8.40;;
28756;SDS011;44294;48.282;14.282;2022-10-30T17:23:59;16.77;;;8.13;;
28756;SDS011;44294;48.282;14.282;2022-10-30T17:26:56;18.23;;;8.60;;
28756;SDS011;44294;48.282;14.282;2022-10-30T17:32:40;13.97;;;8.50;;
28756;SDS011;44294;48.282;14.282;2022-10-30T17:35:17;11.30;;;8.07;;
28756;SDS011;44294;48.282;14.282;2022-10-30T17:38:04;14.80;;;8.00;;
28756;SDS011;44294;48.282;14.282;2022-10-30T17:40:53;17.53;;;8.83;;
28756;SDS011;44294;48.282;14.282;2022-10-30T17:43:47;13.97;;;8.43;;
28756;SDS011;44294;48.282;14.282;2022-10-30T17:46:34;15.07;;;8.90;;
28756;SDS011;44294;48.282;14.282;2022-10-30T17:52:15;12.43;;;8.60;;
28756;SDS011;44294;48.282;14.282;2022-10-30T17:55:07;16.00;;;9.70;;
28756;SDS011;44294;48.282;14.282;2022-10-30T17:57:52;20.27;;;9.10;;
28756;SDS011;44294;48.282;14.282;2022-10-30T18:00:39;15.53;;;8.73;;
28756;SDS011;44294;48.282;14.282;2022-10-30T18:03:27;14.53;;;8.70;;
28756;SDS011;44294;48.282;14.282;2022-10-30T18:06:15;15.87;;;8.60;;
28756;SDS011;44294;48.282;14.282;2022-10-30T18:09:03;17.23;;;9.10;;
28756;SDS011;44294;48.282;14.282;2022-10-30T18:11:50;17.87;;;9.60;;
28756;SDS011;44294;48.282;14.282;2022-10-30T18:14:38;14.17;;;9.00;;
28756;SDS011;44294;48.282;14.282;2022-10-30T18:17:25;15.77;;;8.83;;
28756;SDS011;44294;48.282;14.282;2022-10-30T18:20:13;15.30;;;9.00;;
28756;SDS011;44294;48.282;14.282;2022-10-30T18:23:00;16.60;;;9.90;;
28756;SDS011;44294;48.282;14.282;2022-10-30T18:25:48;18.43;;;10.90;;
28756;SDS011;44294;48.282;14.282;2022-10-30T18:28:35;15.47;;;9.30;;
28756;SDS011;44294;48.282;14.282;2022-10-30T18:31:23;16.93;;;11.13;;
28756;SDS011;44294;48.282;14.282;2022-10-30T18:34:14;16.87;;;10.10;;
28756;SDS011;44294;48.282;14.282;2022-10-30T18:36:59;18.70;;;11.30;;
28756;SDS011;44294;48.282;14.282;2022-10-30T18:39:46;18.50;;;10.77;;